createdAt,value
2018-05-17T00:02:05.286Z,20.59
2018-05-17T00:04:32.884Z,20.61
2018-05-17T00:07:00.528Z,20.65
2018-05-17T00:09:28.210Z,20.70
2018-05-17T00:11:55.864Z,20.75
2018-05-17T00:14:23.460Z,20.79
2018-05-17T00:16:51.091Z,20.80
2018-05-17T00:19:18.714Z,20.79
2018-05-17T00:21:46.300Z,20.77
2018-05-17T00:24:14.010Z,20.75
2018-05-17T00:26:41.653Z,20.73
2018-05-17T00:29:09.252Z,20.69
2018-05-17T00:31:37.046Z,20.58
2018-05-17T00:34:04.627Z,20.55
2018-05-17T00:36:32.208Z,20.54
2018-05-17T00:38:59.937Z,20.50
2018-05-17T00:41:27.950Z,20.43
2018-05-17T00:43:55.534Z,20.30
2018-05-17T00:46:23.179Z,20.25
2018-05-17T00:48:50.780Z,20.18
2018-05-17T00:51:18.364Z,20.11
2018-05-17T00:53:45.990Z,20.04
2018-05-17T00:56:13.553Z,19.99
2018-05-17T00:58:41.235Z,19.89
2018-05-17T01:01:08.950Z,19.83
2018-05-17T01:03:36.536Z,19.77
2018-05-17T01:06:04.180Z,19.66
2018-05-17T01:08:31.944Z,19.58
2018-05-17T01:10:59.524Z,19.50
2018-05-17T01:13:27.825Z,19.40
2018-05-17T01:15:55.520Z,19.33
2018-05-17T01:18:23.096Z,19.29
2018-05-17T01:20:50.732Z,19.26
2018-05-17T01:23:18.472Z,19.24
2018-05-17T01:25:46.125Z,19.25
2018-05-17T01:28:13.707Z,19.29
2018-05-17T01:30:41.472Z,19.29
2018-05-17T01:33:09.037Z,19.24
2018-05-17T01:35:36.632Z,19.15
2018-05-17T01:38:16.156Z,19.06
2018-05-17T01:40:43.741Z,19.04
2018-05-17T01:43:11.348Z,18.99
2018-05-17T01:45:39.192Z,18.92
2018-05-17T01:48:06.852Z,18.90
2018-05-17T01:50:34.415Z,18.87
2018-05-17T01:53:02.084Z,18.89
2018-05-17T01:55:29.664Z,18.91
2018-05-17T01:57:57.298Z,18.94
2018-05-17T02:00:25.027Z,18.98
2018-05-17T02:02:52.660Z,19.01
2018-05-17T02:05:20.332Z,19.06
2018-05-17T02:07:48.099Z,19.10
2018-05-17T02:10:15.681Z,19.15
2018-05-17T02:12:43.270Z,19.20
2018-05-17T02:15:10.884Z,19.28
2018-05-17T02:17:38.471Z,19.36
2018-05-17T02:20:06.052Z,19.49
2018-05-17T02:22:34.447Z,19.57
2018-05-17T02:25:02.157Z,19.69
2018-05-17T02:27:29.800Z,19.80
2018-05-17T02:29:57.575Z,19.88
2018-05-17T02:32:25.167Z,19.97
2018-05-17T02:34:52.814Z,20.04
2018-05-17T02:37:20.433Z,20.10
2018-05-17T02:39:48.088Z,20.15
2018-05-17T02:42:15.667Z,20.18
2018-05-17T02:44:43.346Z,20.17
2018-05-17T02:47:10.933Z,20.14
2018-05-17T02:49:38.523Z,20.09
2018-05-17T02:52:06.340Z,20.06
2018-05-17T02:54:34.146Z,20.02
2018-05-17T02:57:01.792Z,20.01
2018-05-17T02:59:29.436Z,19.98
2018-05-17T03:01:57.005Z,19.96
2018-05-17T03:04:24.653Z,19.94
2018-05-17T03:06:52.268Z,19.93
2018-05-17T03:09:19.836Z,19.92
2018-05-17T03:11:47.443Z,19.89
2018-05-17T03:14:15.051Z,19.90
2018-05-17T03:16:42.624Z,19.91
2018-05-17T03:19:10.196Z,19.94
2018-05-17T03:21:37.969Z,19.95
2018-05-17T03:24:05.613Z,19.98
2018-05-17T03:26:33.245Z,19.99
2018-05-17T03:29:00.875Z,19.97
2018-05-17T03:31:28.455Z,19.94
2018-05-17T03:33:56.103Z,19.96
2018-05-17T03:36:23.724Z,19.98
2018-05-17T03:38:51.289Z,19.98
2018-05-17T03:41:18.905Z,19.99
2018-05-17T03:43:46.684Z,20.02
2018-05-17T03:46:14.902Z,20.06
2018-05-17T03:48:42.484Z,20.08
2018-05-17T03:51:10.183Z,20.08
2018-05-17T03:53:37.813Z,20.08
2018-05-17T03:56:05.405Z,20.09
2018-05-17T03:58:33.134Z,20.10
2018-05-17T04:01:12.450Z,20.15
2018-05-17T04:03:51.811Z,20.15
2018-05-17T04:06:31.289Z,20.19
2018-05-17T04:08:58.915Z,20.20
2018-05-17T04:11:26.613Z,20.24
2018-05-17T04:13:54.229Z,20.28
2018-05-17T04:16:22.824Z,20.33
2018-05-17T04:18:50.738Z,20.36
2018-05-17T04:21:18.397Z,20.44
2018-05-17T04:23:46.076Z,20.50
2018-05-17T04:26:13.635Z,20.55
2018-05-17T04:28:42.135Z,20.61
2018-05-17T04:31:09.861Z,20.63
2018-05-17T04:33:37.500Z,20.67
2018-05-17T04:36:05.159Z,20.66
2018-05-17T04:38:32.773Z,20.72
2018-05-17T04:41:00.423Z,20.78
2018-05-17T04:43:27.999Z,20.84
2018-05-17T04:45:55.631Z,20.90
2018-05-17T04:48:23.260Z,20.96
2018-05-17T04:50:50.829Z,21.02
2018-05-17T04:53:18.565Z,21.09
2018-05-17T04:55:46.907Z,21.14
2018-05-17T04:58:15.847Z,21.23
2018-05-17T05:00:43.564Z,21.29
2018-05-17T05:03:11.145Z,21.36
2018-05-17T05:05:38.783Z,21.40
2018-05-17T05:08:06.431Z,21.44
2018-05-17T05:10:34.091Z,21.45
2018-05-17T05:13:01.691Z,21.42
2018-05-17T05:15:29.323Z,21.38
2018-05-17T05:17:56.979Z,21.35
2018-05-17T05:20:24.544Z,21.38
2018-05-17T05:22:52.330Z,21.55
2018-05-17T05:25:20.031Z,21.68
2018-05-17T05:27:47.547Z,21.73
2018-05-17T05:30:15.268Z,21.71
2018-05-17T05:32:42.859Z,21.66
2018-05-17T05:35:10.496Z,21.61
2018-05-17T05:37:38.200Z,21.56
2018-05-17T05:40:05.812Z,21.55
2018-05-17T05:42:33.511Z,21.54
2018-05-17T05:45:01.157Z,21.56
2018-05-17T05:47:28.868Z,21.58
2018-05-17T05:49:56.442Z,21.64
2018-05-17T05:52:24.256Z,21.64
2018-05-17T05:54:51.849Z,21.61
2018-05-17T05:57:19.451Z,21.60
2018-05-17T05:59:47.100Z,21.67
2018-05-17T06:02:14.746Z,21.78
2018-05-17T06:04:43.054Z,21.80
2018-05-17T06:07:10.684Z,21.86
2018-05-17T06:09:38.324Z,21.98
2018-05-17T06:12:05.988Z,22.00
2018-05-17T06:14:33.695Z,22.05
2018-05-17T06:17:01.353Z,22.03
2018-05-17T06:19:28.940Z,22.03
2018-05-17T06:21:56.640Z,22.02
2018-05-17T06:24:24.286Z,21.89
2018-05-17T06:26:51.886Z,21.88
2018-05-17T06:29:19.517Z,21.88
2018-05-17T06:31:47.106Z,21.92
2018-05-17T06:34:14.749Z,22.11
2018-05-17T06:36:42.419Z,22.28
2018-05-17T06:39:10.011Z,22.58
2018-05-17T06:41:37.669Z,22.82
2018-05-17T06:44:06.222Z,23.19
2018-05-17T06:46:33.811Z,23.63
2018-05-17T06:49:01.448Z,23.97
2018-05-17T06:51:29.924Z,24.32
2018-05-17T06:53:57.561Z,24.63
2018-05-17T06:56:25.144Z,24.76
2018-05-17T06:58:53.715Z,24.86
2018-05-17T07:01:21.296Z,24.99
2018-05-17T07:03:49.667Z,24.89
2018-05-17T07:06:18.256Z,25.12
2018-05-17T07:08:49.096Z,25.45
2018-05-17T07:11:16.867Z,25.79
2018-05-17T07:13:44.449Z,25.66
2018-05-17T07:16:12.036Z,25.50
2018-05-17T07:18:40.027Z,25.45
2018-05-17T07:21:08.043Z,25.39
2018-05-17T07:23:36.031Z,25.40
2018-05-17T07:26:03.957Z,25.49
2018-05-17T07:28:31.837Z,25.58
2018-05-17T07:30:59.497Z,25.80
2018-05-17T07:33:27.208Z,26.07
2018-05-17T07:35:54.789Z,25.92
2018-05-17T07:38:22.419Z,25.37
2018-05-17T07:40:50.704Z,25.52
2018-05-17T07:43:18.260Z,25.67
2018-05-17T07:45:45.838Z,26.04
2018-05-17T07:48:13.559Z,25.86
2018-05-17T07:50:41.204Z,25.86
2018-05-17T07:53:08.946Z,25.99
2018-05-17T07:55:36.759Z,26.14
2018-05-17T07:58:04.349Z,26.53
2018-05-17T08:00:31.981Z,26.73
2018-05-17T08:02:59.652Z,26.62
2018-05-17T08:05:27.243Z,26.80
2018-05-17T08:07:54.834Z,27.22
2018-05-17T08:10:22.467Z,27.40
2018-05-17T08:12:50.081Z,27.52
2018-05-17T08:15:17.670Z,27.51
2018-05-17T08:17:45.313Z,27.55
2018-05-17T08:20:12.890Z,27.64
2018-05-17T08:22:40.554Z,27.46
2018-05-17T08:25:08.357Z,27.84
2018-05-17T08:27:35.988Z,27.17
2018-05-17T08:30:03.636Z,26.72
2018-05-17T08:32:31.252Z,26.91
2018-05-17T08:34:58.848Z,27.03
2018-05-17T08:37:26.427Z,27.12
2018-05-17T08:39:54.121Z,27.01
2018-05-17T08:42:21.715Z,27.13
2018-05-17T08:44:49.362Z,27.26
2018-05-17T08:47:17.014Z,27.46
2018-05-17T08:49:44.597Z,27.32
2018-05-17T08:52:12.241Z,27.20
2018-05-17T08:54:39.965Z,27.25
2018-05-17T08:57:07.547Z,26.97
2018-05-17T08:59:35.173Z,26.51
2018-05-17T09:02:02.825Z,26.33
2018-05-17T09:04:30.409Z,26.59
2018-05-17T09:06:58.999Z,26.67
2018-05-17T09:09:26.641Z,26.65
2018-05-17T09:11:54.316Z,26.94
2018-05-17T09:14:21.950Z,27.33
2018-05-17T09:16:49.645Z,27.48
2018-05-17T09:19:17.237Z,27.93
2018-05-17T09:21:44.880Z,28.26
2018-05-17T09:24:12.583Z,28.19
2018-05-17T09:26:40.177Z,28.43
2018-05-17T09:29:07.813Z,28.65
2018-05-17T09:31:35.522Z,28.86
2018-05-17T09:34:03.111Z,28.84
2018-05-17T09:36:30.696Z,28.38
2018-05-17T09:38:58.387Z,28.37
2018-05-17T09:41:26.083Z,28.42
2018-05-17T09:43:53.603Z,28.63
2018-05-17T09:46:21.789Z,28.87
2018-05-17T09:48:49.431Z,28.88
2018-05-17T09:51:17.082Z,28.88
2018-05-17T09:53:44.798Z,28.55
2018-05-17T09:56:12.997Z,28.41
2018-05-17T09:58:40.600Z,28.75
2018-05-17T10:01:08.240Z,28.35
2018-05-17T10:03:35.836Z,28.09
2018-05-17T10:06:03.449Z,28.01
2018-05-17T10:08:31.192Z,28.32
2018-05-17T10:10:58.796Z,28.63
2018-05-17T10:13:26.451Z,29.02
2018-05-17T10:15:54.077Z,29.20
2018-05-17T10:18:21.645Z,29.47
2018-05-17T10:20:49.289Z,29.14
2018-05-17T10:23:17.019Z,29.18
2018-05-17T10:25:44.599Z,29.02
2018-05-17T10:28:12.827Z,28.93
2018-05-17T10:30:41.265Z,29.15
2018-05-17T10:33:08.851Z,29.67
2018-05-17T10:35:36.435Z,29.85
2018-05-17T10:38:04.140Z,30.02
2018-05-17T10:40:40.541Z,29.96
2018-05-17T10:43:08.237Z,30.29
2018-05-17T10:45:35.877Z,30.62
2018-05-17T10:48:03.467Z,30.80
2018-05-17T10:50:31.164Z,30.96
2018-05-17T10:52:58.765Z,30.79
2018-05-17T10:55:26.373Z,30.85
2018-05-17T10:57:54.161Z,30.62
2018-05-17T11:00:21.828Z,30.48
2018-05-17T11:02:49.404Z,30.53
2018-05-17T11:05:17.553Z,30.49
2018-05-17T11:07:45.227Z,30.60
2018-05-17T11:10:12.849Z,30.53
2018-05-17T11:12:40.572Z,30.76
2018-05-17T11:15:08.207Z,30.86
2018-05-17T11:17:35.816Z,30.64
2018-05-17T11:20:03.479Z,29.96
2018-05-17T11:22:31.146Z,29.85
2018-05-17T11:24:58.791Z,29.73
2018-05-17T11:27:26.521Z,29.91
2018-05-17T11:29:54.144Z,29.87
2018-05-17T11:32:21.728Z,29.76
2018-05-17T11:34:49.451Z,29.99
2018-05-17T11:37:17.140Z,29.97
2018-05-17T11:39:44.723Z,29.70
2018-05-17T11:42:12.360Z,29.42
2018-05-17T11:44:39.957Z,29.40
2018-05-17T11:47:07.541Z,29.21
2018-05-17T11:49:35.360Z,28.95
2018-05-17T11:52:02.967Z,29.10
2018-05-17T11:54:30.558Z,29.15
2018-05-17T11:56:58.188Z,29.31
2018-05-17T11:59:25.839Z,29.35
2018-05-17T12:01:53.418Z,29.58
2018-05-17T12:04:21.054Z,29.67
2018-05-17T12:06:48.632Z,29.45
2018-05-17T12:09:16.220Z,29.38
2018-05-17T12:11:43.835Z,29.51
2018-05-17T12:14:11.420Z,29.58
2018-05-17T12:16:39.007Z,29.50
2018-05-17T12:19:07.186Z,29.69
2018-05-17T12:21:34.775Z,29.92
2018-05-17T12:24:02.870Z,29.90
2018-05-17T12:26:30.569Z,29.99
2018-05-17T12:28:58.951Z,29.92
2018-05-17T12:31:26.540Z,29.78
2018-05-17T12:33:54.543Z,29.80
2018-05-17T12:36:22.170Z,29.75
2018-05-17T12:38:49.810Z,29.61
2018-05-17T12:41:17.429Z,29.40
2018-05-17T12:43:45.028Z,29.32
2018-05-17T12:46:12.604Z,29.35
2018-05-17T12:48:40.264Z,29.43
2018-05-17T12:51:07.901Z,29.40
2018-05-17T12:53:35.498Z,29.31
2018-05-17T12:56:03.276Z,29.36
2018-05-17T12:58:31.047Z,29.44
2018-05-17T13:00:58.588Z,29.47
2018-05-17T13:03:26.345Z,29.24
2018-05-17T13:05:53.935Z,29.22
2018-05-17T13:08:21.534Z,29.28
2018-05-17T13:10:49.266Z,29.36
2018-05-17T13:13:16.891Z,29.18
2018-05-17T13:15:44.545Z,29.26
2018-05-17T13:18:12.335Z,29.32
2018-05-17T13:20:39.924Z,29.37
2018-05-17T13:23:07.547Z,29.43
2018-05-17T13:25:35.246Z,29.37
2018-05-17T13:28:02.843Z,29.40
2018-05-17T13:30:30.421Z,29.45
2018-05-17T13:32:58.043Z,29.36
2018-05-17T13:35:25.626Z,29.19
2018-05-17T13:37:53.205Z,29.09
2018-05-17T13:40:20.924Z,29.07
2018-05-17T13:42:48.564Z,29.11
2018-05-17T13:45:16.205Z,29.14
2018-05-17T13:47:43.932Z,29.21
2018-05-17T13:50:11.609Z,29.22
2018-05-17T13:52:39.188Z,29.09
2018-05-17T13:55:06.902Z,29.04
2018-05-17T13:57:34.492Z,28.91
2018-05-17T14:00:02.061Z,28.76
2018-05-17T14:02:29.972Z,28.52
2018-05-17T14:04:57.449Z,28.50
2018-05-17T14:07:25.128Z,28.33
2018-05-17T14:09:52.835Z,28.40
2018-05-17T14:12:20.424Z,28.43
2018-05-17T14:14:48.076Z,28.36
2018-05-17T14:17:15.839Z,28.31
2018-05-17T14:19:43.451Z,28.26
2018-05-17T14:22:11.094Z,28.28
2018-05-17T14:24:38.708Z,28.31
2018-05-17T14:27:06.292Z,28.29
2018-05-17T14:29:33.924Z,28.35
2018-05-17T14:32:01.557Z,28.31
2018-05-17T14:34:29.199Z,28.07
2018-05-17T14:36:56.802Z,27.80
2018-05-17T14:39:24.468Z,27.52
2018-05-17T14:41:52.047Z,27.22
2018-05-17T14:44:19.700Z,26.94
2018-05-17T14:46:47.420Z,26.65
2018-05-17T14:49:14.997Z,26.38
2018-05-17T14:51:42.657Z,26.08
2018-05-17T14:54:10.350Z,25.83
2018-05-17T14:56:38.765Z,25.82
2018-05-17T14:59:06.534Z,25.86
2018-05-17T15:01:34.166Z,25.84
2018-05-17T15:04:01.830Z,25.74
2018-05-17T15:06:29.504Z,25.65
2018-05-17T15:08:57.152Z,25.56
2018-05-17T15:11:24.913Z,25.38
2018-05-17T15:13:52.451Z,25.32
2018-05-17T15:16:20.160Z,25.27
2018-05-17T15:18:47.757Z,25.25
2018-05-17T15:21:15.350Z,25.15
2018-05-17T15:23:42.992Z,25.06
2018-05-17T15:26:10.589Z,24.94
2018-05-17T15:28:38.172Z,24.91
2018-05-17T15:31:05.945Z,24.91
2018-05-17T15:33:33.551Z,24.92
2018-05-17T15:36:01.121Z,25.03
2018-05-17T15:38:28.846Z,25.15
2018-05-17T15:40:56.430Z,25.28
2018-05-17T15:43:24.077Z,25.37
2018-05-17T15:45:51.785Z,25.46
2018-05-17T15:48:19.417Z,25.54
2018-05-17T15:50:47.056Z,25.61
2018-05-17T15:53:14.712Z,25.65
2018-05-17T15:55:42.344Z,25.66
2018-05-17T15:58:09.987Z,25.65
2018-05-17T16:00:37.654Z,25.71
2018-05-17T16:03:05.239Z,25.71
2018-05-17T16:05:32.892Z,25.72
2018-05-17T16:08:00.536Z,25.77
2018-05-17T16:10:28.105Z,25.78
2018-05-17T16:12:55.712Z,25.82
2018-05-17T16:15:23.953Z,25.86
2018-05-17T16:17:51.499Z,25.82
2018-05-17T16:20:19.153Z,25.80
2018-05-17T16:22:46.795Z,25.76
2018-05-17T16:25:14.389Z,25.71
2018-05-17T16:27:41.972Z,25.71
2018-05-17T16:30:09.749Z,25.67
2018-05-17T16:32:38.118Z,25.65
2018-05-17T16:35:05.772Z,25.61
2018-05-17T16:37:33.396Z,25.64
2018-05-17T16:40:00.964Z,25.65
2018-05-17T16:42:28.539Z,25.64
2018-05-17T16:44:56.895Z,25.78
2018-05-17T16:47:24.475Z,25.84
2018-05-17T16:49:52.077Z,25.76
2018-05-17T16:52:19.829Z,25.75
2018-05-17T16:54:47.420Z,25.67
2018-05-17T16:57:15.018Z,25.62
2018-05-17T16:59:42.756Z,25.57
2018-05-17T17:02:10.320Z,25.51
2018-05-17T17:04:37.903Z,25.47
2018-05-17T17:07:05.625Z,25.37
2018-05-17T17:09:33.316Z,25.27
2018-05-17T17:12:00.911Z,25.25
2018-05-17T17:14:28.527Z,25.20
2018-05-17T17:16:56.122Z,25.16
2018-05-17T17:19:23.773Z,25.14
2018-05-17T17:21:51.526Z,25.13
2018-05-17T17:24:19.104Z,25.13
2018-05-17T17:26:46.720Z,25.16
2018-05-17T17:29:14.363Z,25.10
2018-05-17T17:31:42.000Z,25.03
2018-05-17T17:34:09.635Z,24.90
2018-05-17T17:36:37.522Z,24.76
2018-05-17T17:39:05.959Z,24.51
2018-05-17T17:41:33.605Z,24.38
2018-05-17T17:44:01.232Z,24.23
2018-05-17T17:46:28.833Z,24.16
2018-05-17T17:48:56.468Z,24.10
2018-05-17T17:51:24.192Z,23.98
2018-05-17T17:53:51.822Z,23.84
2018-05-17T17:56:19.396Z,23.72
2018-05-17T17:58:47.051Z,23.62
2018-05-17T18:01:14.689Z,23.50
2018-05-17T18:03:42.272Z,23.41
2018-05-17T18:06:09.903Z,23.31
2018-05-17T18:08:37.569Z,23.23
2018-05-17T18:11:05.229Z,23.16
2018-05-17T18:13:32.932Z,23.14
2018-05-17T18:16:00.531Z,23.11
2018-05-17T18:18:29.018Z,23.09
2018-05-17T18:20:56.709Z,23.01
2018-05-17T18:23:24.339Z,22.99
2018-05-17T18:25:51.970Z,22.94
2018-05-17T18:28:19.608Z,22.81
2018-05-17T18:30:47.257Z,22.78
2018-05-17T18:33:14.849Z,22.71
2018-05-17T18:35:43.504Z,22.66
2018-05-17T18:38:11.173Z,22.60
2018-05-17T18:40:38.861Z,22.53
2018-05-17T18:43:06.647Z,22.49
2018-05-17T18:45:34.225Z,22.45
2018-05-17T18:48:01.828Z,22.38
2018-05-17T18:50:29.459Z,22.23
2018-05-17T18:52:57.045Z,22.14
2018-05-17T18:55:24.685Z,22.10
2018-05-17T18:57:52.411Z,22.14
2018-05-17T19:00:20.149Z,22.13
2018-05-17T19:02:47.934Z,22.01
2018-05-17T19:05:15.472Z,21.95
2018-05-17T19:07:43.136Z,21.91
2018-05-17T19:10:11.791Z,21.87
2018-05-17T19:12:39.431Z,21.89
2018-05-17T19:15:07.021Z,21.89
2018-05-17T19:17:34.604Z,21.90
2018-05-17T19:20:02.234Z,21.87
2018-05-17T19:22:29.827Z,21.88
2018-05-17T19:24:57.460Z,21.90
2018-05-17T19:27:25.235Z,21.90
2018-05-17T19:29:54.356Z,21.91
2018-05-17T19:32:21.938Z,21.93
2018-05-17T19:34:49.565Z,21.93
2018-05-17T19:37:17.279Z,21.89
2018-05-17T19:39:44.772Z,21.89
2018-05-17T19:42:12.508Z,21.92
2018-05-17T19:44:40.079Z,21.93
2018-05-17T19:47:07.706Z,21.93
2018-05-17T19:49:35.401Z,21.89
2018-05-17T19:52:02.979Z,21.78
2018-05-17T19:54:30.622Z,21.70
2018-05-17T19:56:58.250Z,21.68
2018-05-17T19:59:25.904Z,21.68
2018-05-17T20:01:53.537Z,21.63
2018-05-17T20:04:21.170Z,21.60
2018-05-17T20:06:49.628Z,21.59
2018-05-17T20:09:17.199Z,21.57
2018-05-17T20:11:44.959Z,21.56
2018-05-17T20:14:12.532Z,21.55
2018-05-17T20:16:40.164Z,21.51
2018-05-17T20:19:07.888Z,21.51
2018-05-17T20:21:35.497Z,21.47
2018-05-17T20:24:03.086Z,21.39
2018-05-17T20:26:30.721Z,21.35
2018-05-17T20:28:58.347Z,21.27
2018-05-17T20:31:26.000Z,21.22
2018-05-17T20:33:53.758Z,21.16
2018-05-17T20:36:21.342Z,21.10
2018-05-17T20:38:49.850Z,21.01
2018-05-17T20:41:17.549Z,21.03
2018-05-17T20:43:45.188Z,21.04
2018-05-17T20:46:12.848Z,21.06
2018-05-17T20:48:40.474Z,21.10
2018-05-17T20:51:08.721Z,21.10
2018-05-17T20:53:36.297Z,21.11
2018-05-17T20:56:04.120Z,21.07
2018-05-17T20:58:31.705Z,21.09
2018-05-17T21:00:59.297Z,21.06
2018-05-17T21:03:26.934Z,21.04
2018-05-17T21:05:54.572Z,20.98
2018-05-17T21:08:22.141Z,20.98
2018-05-17T21:10:49.784Z,21.03
2018-05-17T21:13:17.768Z,21.04
2018-05-17T21:15:45.366Z,21.05
2018-05-17T21:18:13.076Z,21.08
2018-05-17T21:20:40.667Z,21.09
2018-05-17T21:23:08.312Z,21.12
2018-05-17T21:25:36.008Z,21.14
2018-05-17T21:28:03.583Z,21.14
2018-05-17T21:30:31.155Z,21.11
2018-05-17T21:32:58.865Z,21.19
2018-05-17T21:35:26.435Z,21.33
2018-05-17T21:37:54.077Z,21.31
2018-05-17T21:40:21.831Z,21.29
2018-05-17T21:42:49.405Z,21.25
2018-05-17T21:45:17.052Z,21.23
2018-05-17T21:47:44.851Z,21.16
2018-05-17T21:50:12.485Z,21.13
2018-05-17T21:52:40.079Z,21.14
2018-05-17T21:55:07.743Z,21.14
2018-05-17T21:57:35.408Z,21.15
2018-05-17T22:00:03.035Z,21.18
2018-05-17T22:02:30.820Z,21.18
2018-05-17T22:04:58.451Z,21.14
2018-05-17T22:07:26.062Z,21.10
2018-05-17T22:09:53.816Z,21.06
2018-05-17T22:12:22.043Z,20.94
2018-05-17T22:14:50.132Z,20.87
2018-05-17T22:17:17.757Z,20.82
2018-05-17T22:19:45.353Z,20.74
2018-05-17T22:22:12.988Z,20.68
2018-05-17T22:24:40.717Z,20.52
2018-05-17T22:27:08.288Z,20.45
2018-05-17T22:29:35.867Z,20.42
2018-05-17T22:32:03.583Z,20.32
2018-05-17T22:34:31.221Z,20.06
2018-05-17T22:36:58.883Z,19.92
2018-05-17T22:39:26.524Z,19.91
2018-05-17T22:41:54.118Z,19.87
2018-05-17T22:44:21.719Z,19.87
2018-05-17T22:46:49.535Z,19.88
2018-05-17T22:49:17.184Z,19.87
2018-05-17T22:51:44.769Z,19.83
2018-05-17T22:54:12.517Z,19.80
2018-05-17T22:56:52.033Z,19.77
2018-05-17T22:59:19.824Z,19.71
2018-05-17T23:01:47.440Z,19.69
2018-05-17T23:04:15.081Z,19.66
2018-05-17T23:06:42.735Z,19.66
2018-05-17T23:09:10.325Z,19.62
2018-05-17T23:11:37.913Z,19.60
2018-05-17T23:14:05.577Z,19.49
2018-05-17T23:16:33.211Z,19.40
2018-05-17T23:19:00.864Z,19.33
2018-05-17T23:21:28.616Z,19.21
2018-05-17T23:23:56.235Z,19.12
2018-05-17T23:26:24.804Z,19.03
2018-05-17T23:28:52.473Z,18.93
2018-05-17T23:31:20.081Z,18.85
2018-05-17T23:33:47.658Z,18.84
2018-05-17T23:36:15.287Z,18.85
2018-05-17T23:38:42.887Z,18.85
2018-05-17T23:41:23.120Z,18.83
2018-05-17T23:43:50.707Z,18.79
2018-05-17T23:46:18.364Z,18.77
2018-05-17T23:48:45.985Z,18.75
2018-05-17T23:51:13.689Z,18.72
2018-05-17T23:53:41.325Z,18.75
2018-05-17T23:56:09.057Z,18.78
2018-05-17T23:58:36.653Z,18.88
